Список аэропортов
Фактическая погода:

24 мая, 16:30
Температура: +7°C (+3.4*)
Ветер: северный 6 м/с
Давление: *761 мм
неб. облачность
1200 м
Время (МСК)Темп. СВетерВлажностьДавлениеОблачностьОсадки
15:00+8СЗ, 5 м/с38%1014 гПаоблачно
16:00+8СЗ, 4 м/с38%1014 гПаоблачно
17:00+8СЗ, 4 м/с38%1014 гПаоблачно
18:00+8СЗ, 3 м/с41%1014 гПаоблачно
19:00+7СЗ, 2 м/с44%1014 гПаоблачно
20:00+6З, 1 м/с48%1014 гПаоблачно
21:00+5ЮЗ, 1 м/с66%1014 гПаоблачно
22:00+2Штиль 84%1013 гПаоблачно
23:000Ю, 1 м/с87%1014 гПамалооблачно
25 мая
00:00-1Ю, 1 м/с89%1013 гПас прояснениями
01:00-1ЮВ, 1 м/с92%1013 гПас прояснениями
02:00-1ЮВ, 1 м/с94%1013 гПаоблачно
03:00-0ЮВ, 1 м/с89%1013 гПаоблачно
04:00+1ЮВ, 1 м/с88%1012 гПаоблачно
05:00+1ЮВ, 1 м/с86%1011 гПаоблачно
06:00+3ЮВ, 1 м/с74%1011 гПаоблачно
07:00+6Ю, 2 м/с54%1010 гПас прояснениями
08:00+9Ю, 2 м/с46%1010 гПас прояснениями
09:00+12Ю, 2 м/с39%1009 гПамалооблачно
10:00+14ЮЗ, 3 м/с33%1008 гПаясно
11:00+15ЮЗ, 3 м/с30%1008 гПаясно
12:00+16ЮЗ, 3 м/с30%1007 гПамалооблачно
13:00+17ЮЗ, 2 м/с30%1006 гПаоблачно
14:00+17ЮЗ, 2 м/с30%1006 гПаоблачно
15:00+17ЮЗ, 2 м/с30%1005 гПаоблачно
16:00+17ЮЗ, 2 м/с31%1004 гПаоблачно
17:00+16З, 2 м/с32%1004 гПаоблачно
18:00+16ЮЗ, 2 м/с37%1003 гПаоблачно
19:00+14Ю, 1 м/с62%1003 гПаоблачно
20:00+13В, 1 м/с59%1001 гПаоблачно
21:00+11В, 1 м/с69%1001 гПаоблачно
22:00+9В, 1 м/с74%1000 гПаоблачно
23:00+8В, 1 м/с90%999 гПаоблачносл. дождь
26 мая
00:00+7В, 2 м/с89%998 гПаоблачно
01:00+6В, 2 м/с91%997 гПаоблачно
02:00+5В, 1 м/с92%997 гПаоблачно
03:00+5В, 1 м/с92%996 гПаоблачно
04:00+5В, 1 м/с93%996 гПаоблачно
05:00+5В, 1 м/с94%995 гПаоблачносл. дождь
06:00+6В, 1 м/с91%995 гПаоблачносл. дождь
07:00+7Штиль 88%995 гПаоблачно
08:00+9СЗ, 1 м/с82%995 гПаоблачно
09:00+10С, 1 м/с78%995 гПаоблачно
10:00+10С, 2 м/с82%996 гПаоблачносл. дождь
11:00+8С, 2 м/с93%997 гПаоблачнодождь
12:00+7С, 3 м/с96%997 гПаоблачнодождь
13:00+6С, 3 м/с96%998 гПаоблачнодождь
14:00+6С, 3 м/с95%999 гПаоблачнодождь
15:00+6С, 3 м/с95%1000 гПаоблачнодождь